sensor_id;sensor_type;location;lat;lon;timestamp;P1;durP1;ratioP1;P2;durP2;ratioP2
17753;SDS011;8999;48.994;9.150;2022-12-05T00:01:25;31.50;;;14.33;;
17753;SDS011;8999;48.994;9.150;2022-12-05T00:03:58;35.37;;;14.50;;
17753;SDS011;8999;48.994;9.150;2022-12-05T00:06:32;31.93;;;14.43;;
17753;SDS011;8999;48.994;9.150;2022-12-05T00:09:07;33.83;;;14.33;;
17753;SDS011;8999;48.994;9.150;2022-12-05T00:11:40;37.03;;;15.07;;
17753;SDS011;8999;48.994;9.150;2022-12-05T00:14:12;29.50;;;13.83;;
17753;SDS011;8999;48.994;9.150;2022-12-05T00:16:44;29.43;;;14.17;;
17753;SDS011;8999;48.994;9.150;2022-12-05T00:19:16;32.63;;;15.17;;
17753;SDS011;8999;48.994;9.150;2022-12-05T00:21:47;34.40;;;15.27;;
17753;SDS011;8999;48.994;9.150;2022-12-05T00:24:20;35.97;;;15.23;;
17753;SDS011;8999;48.994;9.150;2022-12-05T00:26:52;36.93;;;15.13;;
17753;SDS011;8999;48.994;9.150;2022-12-05T00:29:23;33.83;;;15.83;;
17753;SDS011;8999;48.994;9.150;2022-12-05T00:31:55;33.90;;;15.03;;
17753;SDS011;8999;48.994;9.150;2022-12-05T00:34:27;33.63;;;15.07;;
17753;SDS011;8999;48.994;9.150;2022-12-05T00:36:58;32.40;;;15.10;;
17753;SDS011;8999;48.994;9.150;2022-12-05T00:39:31;31.30;;;15.03;;
17753;SDS011;8999;48.994;9.150;2022-12-05T00:42:03;35.20;;;15.77;;
17753;SDS011;8999;48.994;9.150;2022-12-05T00:44:35;36.50;;;15.83;;
17753;SDS011;8999;48.994;9.150;2022-12-05T00:47:06;33.50;;;14.87;;
17753;SDS011;8999;48.994;9.150;2022-12-05T00:49:38;31.93;;;15.07;;
17753;SDS011;8999;48.994;9.150;2022-12-05T00:52:09;31.97;;;14.83;;
17753;SDS011;8999;48.994;9.150;2022-12-05T00:54:42;37.83;;;16.00;;
17753;SDS011;8999;48.994;9.150;2022-12-05T00:57:14;30.87;;;15.43;;
17753;SDS011;8999;48.994;9.150;2022-12-05T00:59:46;33.83;;;16.13;;
17753;SDS011;8999;48.994;9.150;2022-12-05T01:02:17;33.70;;;15.83;;
17753;SDS011;8999;48.994;9.150;2022-12-05T01:04:49;33.47;;;15.70;;
17753;SDS011;8999;48.994;9.150;2022-12-05T01:07:20;33.67;;;15.67;;
17753;SDS011;8999;48.994;9.150;2022-12-05T01:09:53;30.60;;;14.13;;
17753;SDS011;8999;48.994;9.150;2022-12-05T01:12:25;34.73;;;15.97;;
17753;SDS011;8999;48.994;9.150;2022-12-05T01:14:57;30.80;;;15.27;;
17753;SDS011;8999;48.994;9.150;2022-12-05T01:17:28;29.63;;;14.33;;
17753;SDS011;8999;48.994;9.150;2022-12-05T01:20:00;30.77;;;14.67;;
17753;SDS011;8999;48.994;9.150;2022-12-05T01:22:32;34.57;;;16.23;;
17753;SDS011;8999;48.994;9.150;2022-12-05T01:25:05;29.73;;;13.93;;
17753;SDS011;8999;48.994;9.150;2022-12-05T01:27:37;29.97;;;14.17;;
17753;SDS011;8999;48.994;9.150;2022-12-05T01:30:09;25.90;;;13.87;;
17753;SDS011;8999;48.994;9.150;2022-12-05T01:32:41;28.67;;;14.80;;
17753;SDS011;8999;48.994;9.150;2022-12-05T01:35:13;31.03;;;14.57;;
17753;SDS011;8999;48.994;9.150;2022-12-05T01:37:45;28.43;;;14.13;;
17753;SDS011;8999;48.994;9.150;2022-12-05T01:40:18;26.87;;;13.63;;
17753;SDS011;8999;48.994;9.150;2022-12-05T01:42:49;24.80;;;13.60;;
17753;SDS011;8999;48.994;9.150;2022-12-05T01:45:21;27.93;;;13.67;;
17753;SDS011;8999;48.994;9.150;2022-12-05T01:47:57;27.27;;;14.13;;
17753;SDS011;8999;48.994;9.150;2022-12-05T01:50:29;25.30;;;14.07;;
17753;SDS011;8999;48.994;9.150;2022-12-05T01:53:01;24.23;;;13.40;;
17753;SDS011;8999;48.994;9.150;2022-12-05T01:55:35;26.10;;;13.50;;
17753;SDS011;8999;48.994;9.150;2022-12-05T01:58:07;22.33;;;12.33;;
17753;SDS011;8999;48.994;9.150;2022-12-05T02:00:40;22.60;;;12.47;;
17753;SDS011;8999;48.994;9.150;2022-12-05T02:03:14;21.17;;;11.93;;
17753;SDS011;8999;48.994;9.150;2022-12-05T02:05:48;22.80;;;12.40;;
17753;SDS011;8999;48.994;9.150;2022-12-05T02:08:21;22.40;;;11.80;;
17753;SDS011;8999;48.994;9.150;2022-12-05T02:10:54;23.77;;;13.80;;
17753;SDS011;8999;48.994;9.150;2022-12-05T02:13:30;24.07;;;13.23;;
17753;SDS011;8999;48.994;9.150;2022-12-05T02:16:10;23.17;;;12.23;;
17753;SDS011;8999;48.994;9.150;2022-12-05T02:18:46;23.63;;;12.37;;
17753;SDS011;8999;48.994;9.150;2022-12-05T02:24:37;22.67;;;13.33;;
17753;SDS011;8999;48.994;9.150;2022-12-05T02:27:35;24.10;;;12.70;;
17753;SDS011;8999;48.994;9.150;2022-12-05T02:30:16;25.70;;;12.87;;
17753;SDS011;8999;48.994;9.150;2022-12-05T02:32:50;22.17;;;12.30;;
17753;SDS011;8999;48.994;9.150;2022-12-05T02:35:28;23.73;;;13.00;;
17753;SDS011;8999;48.994;9.150;2022-12-05T02:38:06;26.80;;;13.43;;
17753;SDS011;8999;48.994;9.150;2022-12-05T02:40:48;25.50;;;13.57;;
17753;SDS011;8999;48.994;9.150;2022-12-05T02:43:29;26.77;;;12.87;;
17753;SDS011;8999;48.994;9.150;2022-12-05T02:46:05;24.07;;;13.17;;
17753;SDS011;8999;48.994;9.150;2022-12-05T02:48:39;29.13;;;13.93;;
17753;SDS011;8999;48.994;9.150;2022-12-05T02:51:13;24.90;;;12.70;;
17753;SDS011;8999;48.994;9.150;2022-12-05T02:53:48;25.23;;;13.57;;
17753;SDS011;8999;48.994;9.150;2022-12-05T02:56:20;25.87;;;13.93;;
17753;SDS011;8999;48.994;9.150;2022-12-05T02:58:53;25.40;;;12.70;;
17753;SDS011;8999;48.994;9.150;2022-12-05T03:01:27;25.87;;;13.87;;
17753;SDS011;8999;48.994;9.150;2022-12-05T03:04:00;25.90;;;13.20;;
17753;SDS011;8999;48.994;9.150;2022-12-05T03:06:35;27.60;;;13.70;;
17753;SDS011;8999;48.994;9.150;2022-12-05T03:09:08;25.50;;;13.63;;
17753;SDS011;8999;48.994;9.150;2022-12-05T03:11:43;28.43;;;14.17;;
17753;SDS011;8999;48.994;9.150;2022-12-05T03:14:18;26.40;;;13.57;;
17753;SDS011;8999;48.994;9.150;2022-12-05T03:16:55;26.57;;;14.07;;
17753;SDS011;8999;48.994;9.150;2022-12-05T03:19:31;26.63;;;13.93;;
17753;SDS011;8999;48.994;9.150;2022-12-05T03:22:07;29.20;;;13.97;;
17753;SDS011;8999;48.994;9.150;2022-12-05T03:24:41;25.40;;;14.13;;
17753;SDS011;8999;48.994;9.150;2022-12-05T03:27:14;23.23;;;13.00;;
17753;SDS011;8999;48.994;9.150;2022-12-05T03:29:53;25.20;;;13.40;;
17753;SDS011;8999;48.994;9.150;2022-12-05T03:32:29;23.53;;;12.97;;
17753;SDS011;8999;48.994;9.150;2022-12-05T03:35:05;24.30;;;13.50;;
17753;SDS011;8999;48.994;9.150;2022-12-05T03:37:42;27.17;;;13.73;;
17753;SDS011;8999;48.994;9.150;2022-12-05T03:40:20;26.87;;;13.50;;
17753;SDS011;8999;48.994;9.150;2022-12-05T03:42:57;24.97;;;13.23;;
17753;SDS011;8999;48.994;9.150;2022-12-05T03:45:33;23.23;;;12.70;;
17753;SDS011;8999;48.994;9.150;2022-12-05T03:48:11;23.90;;;12.77;;
17753;SDS011;8999;48.994;9.150;2022-12-05T03:50:46;22.97;;;12.97;;
17753;SDS011;8999;48.994;9.150;2022-12-05T03:53:18;22.57;;;13.20;;
17753;SDS011;8999;48.994;9.150;2022-12-05T03:55:54;22.00;;;12.30;;
17753;SDS011;8999;48.994;9.150;2022-12-05T03:58:30;21.57;;;12.60;;
17753;SDS011;8999;48.994;9.150;2022-12-05T04:01:04;21.10;;;12.07;;
17753;SDS011;8999;48.994;9.150;2022-12-05T04:03:39;20.90;;;11.97;;
17753;SDS011;8999;48.994;9.150;2022-12-05T04:06:14;23.90;;;12.60;;
17753;SDS011;8999;48.994;9.150;2022-12-05T04:08:50;23.57;;;12.73;;
17753;SDS011;8999;48.994;9.150;2022-12-05T04:11:24;71.70;;;37.43;;
17753;SDS011;8999;48.994;9.150;2022-12-05T04:13:58;25.13;;;14.03;;
17753;SDS011;8999;48.994;9.150;2022-12-05T04:16:35;21.43;;;12.30;;
17753;SDS011;8999;48.994;9.150;2022-12-05T04:19:29;24.77;;;12.47;;
17753;SDS011;8999;48.994;9.150;2022-12-05T04:22:23;18.23;;;9.70;;
17753;SDS011;8999;48.994;9.150;2022-12-05T04:24:56;22.37;;;10.47;;
17753;SDS011;8999;48.994;9.150;2022-12-05T04:27:47;24.87;;;11.13;;
17753;SDS011;8999;48.994;9.150;2022-12-05T04:30:22;23.97;;;11.77;;
17753;SDS011;8999;48.994;9.150;2022-12-05T04:32:57;23.33;;;12.33;;
17753;SDS011;8999;48.994;9.150;2022-12-05T04:35:33;23.67;;;12.60;;
17753;SDS011;8999;48.994;9.150;2022-12-05T04:38:12;21.23;;;11.73;;
17753;SDS011;8999;48.994;9.150;2022-12-05T04:40:48;20.87;;;11.20;;
17753;SDS011;8999;48.994;9.150;2022-12-05T04:43:23;21.90;;;12.03;;
17753;SDS011;8999;48.994;9.150;2022-12-05T04:45:56;22.33;;;10.43;;
17753;SDS011;8999;48.994;9.150;2022-12-05T04:48:28;21.57;;;11.90;;
17753;SDS011;8999;48.994;9.150;2022-12-05T04:51:02;20.40;;;11.10;;
17753;SDS011;8999;48.994;9.150;2022-12-05T04:53:35;19.50;;;10.90;;
17753;SDS011;8999;48.994;9.150;2022-12-05T04:56:06;21.20;;;11.80;;
17753;SDS011;8999;48.994;9.150;2022-12-05T04:58:40;21.97;;;12.23;;
17753;SDS011;8999;48.994;9.150;2022-12-05T05:01:13;21.43;;;11.53;;
17753;SDS011;8999;48.994;9.150;2022-12-05T05:03:49;20.37;;;12.03;;
17753;SDS011;8999;48.994;9.150;2022-12-05T05:06:24;21.53;;;12.30;;
17753;SDS011;8999;48.994;9.150;2022-12-05T05:08:57;20.63;;;11.33;;
17753;SDS011;8999;48.994;9.150;2022-12-05T05:11:30;21.40;;;11.80;;
17753;SDS011;8999;48.994;9.150;2022-12-05T05:14:03;23.60;;;12.23;;
17753;SDS011;8999;48.994;9.150;2022-12-05T05:16:36;22.57;;;12.60;;
17753;SDS011;8999;48.994;9.150;2022-12-05T05:19:09;20.47;;;11.67;;
17753;SDS011;8999;48.994;9.150;2022-12-05T05:21:42;21.57;;;12.23;;
17753;SDS011;8999;48.994;9.150;2022-12-05T05:24:14;22.37;;;12.37;;
17753;SDS011;8999;48.994;9.150;2022-12-05T05:26:46;20.87;;;11.63;;
17753;SDS011;8999;48.994;9.150;2022-12-05T05:29:18;22.57;;;12.77;;
17753;SDS011;8999;48.994;9.150;2022-12-05T05:31:50;22.60;;;13.17;;
17753;SDS011;8999;48.994;9.150;2022-12-05T05:34:21;22.30;;;12.17;;
17753;SDS011;8999;48.994;9.150;2022-12-05T05:36:56;22.00;;;12.93;;
17753;SDS011;8999;48.994;9.150;2022-12-05T05:39:28;24.23;;;13.20;;
17753;SDS011;8999;48.994;9.150;2022-12-05T05:41:59;22.87;;;12.67;;
17753;SDS011;8999;48.994;9.150;2022-12-05T05:44:31;26.67;;;12.63;;
17753;SDS011;8999;48.994;9.150;2022-12-05T05:47:03;20.73;;;11.67;;
17753;SDS011;8999;48.994;9.150;2022-12-05T05:49:34;21.50;;;11.40;;
17753;SDS011;8999;48.994;9.150;2022-12-05T05:52:07;23.90;;;12.77;;
17753;SDS011;8999;48.994;9.150;2022-12-05T05:54:41;19.63;;;11.27;;
17753;SDS011;8999;48.994;9.150;2022-12-05T05:57:16;21.73;;;12.27;;
17753;SDS011;8999;48.994;9.150;2022-12-05T05:59:47;24.77;;;13.03;;
17753;SDS011;8999;48.994;9.150;2022-12-05T06:02:19;20.60;;;12.27;;
17753;SDS011;8999;48.994;9.150;2022-12-05T06:04:51;23.90;;;12.53;;
17753;SDS011;8999;48.994;9.150;2022-12-05T06:07:24;21.23;;;11.43;;
17753;SDS011;8999;48.994;9.150;2022-12-05T06:09:56;22.83;;;12.00;;
17753;SDS011;8999;48.994;9.150;2022-12-05T06:12:28;22.37;;;11.93;;
17753;SDS011;8999;48.994;9.150;2022-12-05T06:15:00;21.60;;;11.17;;
17753;SDS011;8999;48.994;9.150;2022-12-05T06:17:34;22.20;;;10.37;;
17753;SDS011;8999;48.994;9.150;2022-12-05T06:20:06;18.93;;;9.97;;
17753;SDS011;8999;48.994;9.150;2022-12-05T06:22:40;18.27;;;9.67;;
17753;SDS011;8999;48.994;9.150;2022-12-05T06:25:12;20.77;;;10.70;;
17753;SDS011;8999;48.994;9.150;2022-12-05T06:27:44;19.97;;;9.90;;
17753;SDS011;8999;48.994;9.150;2022-12-05T06:30:19;22.40;;;11.87;;
17753;SDS011;8999;48.994;9.150;2022-12-05T06:32:57;18.37;;;10.60;;
17753;SDS011;8999;48.994;9.150;2022-12-05T06:35:29;16.80;;;9.33;;
17753;SDS011;8999;48.994;9.150;2022-12-05T06:38:02;20.43;;;11.23;;
17753;SDS011;8999;48.994;9.150;2022-12-05T06:40:34;22.07;;;11.47;;
17753;SDS011;8999;48.994;9.150;2022-12-05T06:43:05;21.10;;;11.57;;
17753;SDS011;8999;48.994;9.150;2022-12-05T06:45:37;24.53;;;11.57;;
17753;SDS011;8999;48.994;9.150;2022-12-05T06:48:09;20.93;;;11.43;;
17753;SDS011;8999;48.994;9.150;2022-12-05T06:50:46;22.47;;;12.07;;
17753;SDS011;8999;48.994;9.150;2022-12-05T06:53:20;19.50;;;10.60;;
17753;SDS011;8999;48.994;9.150;2022-12-05T06:55:55;24.53;;;11.53;;
17753;SDS011;8999;48.994;9.150;2022-12-05T06:58:27;20.20;;;11.23;;
17753;SDS011;8999;48.994;9.150;2022-12-05T07:00:59;22.23;;;12.67;;
17753;SDS011;8999;48.994;9.150;2022-12-05T07:03:48;19.87;;;11.37;;
17753;SDS011;8999;48.994;9.150;2022-12-05T07:06:20;21.30;;;12.13;;
17753;SDS011;8999;48.994;9.150;2022-12-05T07:08:53;23.00;;;12.17;;
17753;SDS011;8999;48.994;9.150;2022-12-05T07:11:25;24.47;;;12.90;;
17753;SDS011;8999;48.994;9.150;2022-12-05T07:13:56;21.33;;;11.47;;
17753;SDS011;8999;48.994;9.150;2022-12-05T07:16:28;18.43;;;10.80;;
17753;SDS011;8999;48.994;9.150;2022-12-05T07:19:00;21.97;;;12.07;;
17753;SDS011;8999;48.994;9.150;2022-12-05T07:21:31;23.77;;;12.40;;
17753;SDS011;8999;48.994;9.150;2022-12-05T07:24:05;24.47;;;12.87;;
17753;SDS011;8999;48.994;9.150;2022-12-05T07:26:36;25.87;;;12.73;;
17753;SDS011;8999;48.994;9.150;2022-12-05T07:29:08;21.70;;;12.53;;
17753;SDS011;8999;48.994;9.150;2022-12-05T07:31:40;22.23;;;12.80;;
17753;SDS011;8999;48.994;9.150;2022-12-05T07:34:12;24.63;;;13.10;;
17753;SDS011;8999;48.994;9.150;2022-12-05T07:36:43;19.67;;;12.57;;
17753;SDS011;8999;48.994;9.150;2022-12-05T07:39:16;24.70;;;14.53;;
17753;SDS011;8999;48.994;9.150;2022-12-05T07:41:48;24.43;;;13.43;;
17753;SDS011;8999;48.994;9.150;2022-12-05T07:44:20;24.10;;;12.00;;
17753;SDS011;8999;48.994;9.150;2022-12-05T07:46:51;21.00;;;10.97;;
17753;SDS011;8999;48.994;9.150;2022-12-05T07:49:23;20.77;;;10.80;;
17753;SDS011;8999;48.994;9.150;2022-12-05T07:51:55;19.37;;;11.50;;
17753;SDS011;8999;48.994;9.150;2022-12-05T07:54:28;27.90;;;15.00;;
17753;SDS011;8999;48.994;9.150;2022-12-05T07:57:00;25.80;;;14.07;;
17753;SDS011;8999;48.994;9.150;2022-12-05T07:59:32;25.13;;;13.30;;
17753;SDS011;8999;48.994;9.150;2022-12-05T08:02:03;23.67;;;12.67;;
17753;SDS011;8999;48.994;9.150;2022-12-05T08:04:35;22.37;;;11.90;;
17753;SDS011;8999;48.994;9.150;2022-12-05T08:07:08;22.67;;;12.40;;
17753;SDS011;8999;48.994;9.150;2022-12-05T08:09:41;22.20;;;11.93;;
17753;SDS011;8999;48.994;9.150;2022-12-05T08:12:13;22.77;;;12.60;;
17753;SDS011;8999;48.994;9.150;2022-12-05T08:14:45;21.20;;;12.23;;
17753;SDS011;8999;48.994;9.150;2022-12-05T08:17:16;19.50;;;11.37;;
17753;SDS011;8999;48.994;9.150;2022-12-05T08:19:48;20.87;;;12.53;;
17753;SDS011;8999;48.994;9.150;2022-12-05T08:22:19;19.70;;;12.73;;
17753;SDS011;8999;48.994;9.150;2022-12-05T08:24:52;25.50;;;12.53;;
17753;SDS011;8999;48.994;9.150;2022-12-05T08:27:24;25.47;;;12.83;;
17753;SDS011;8999;48.994;9.150;2022-12-05T08:29:56;22.03;;;13.40;;
17753;SDS011;8999;48.994;9.150;2022-12-05T08:32:27;24.17;;;13.83;;
17753;SDS011;8999;48.994;9.150;2022-12-05T08:34:59;27.07;;;14.60;;
17753;SDS011;8999;48.994;9.150;2022-12-05T08:37:31;24.53;;;13.77;;
17753;SDS011;8999;48.994;9.150;2022-12-05T08:40:04;22.37;;;13.27;;
17753;SDS011;8999;48.994;9.150;2022-12-05T08:42:36;23.13;;;13.30;;
17753;SDS011;8999;48.994;9.150;2022-12-05T08:45:08;22.97;;;12.40;;
17753;SDS011;8999;48.994;9.150;2022-12-05T08:47:40;24.77;;;14.40;;
17753;SDS011;8999;48.994;9.150;2022-12-05T08:50:11;24.57;;;13.93;;
17753;SDS011;8999;48.994;9.150;2022-12-05T08:52:43;23.37;;;13.23;;
17753;SDS011;8999;48.994;9.150;2022-12-05T08:55:16;25.20;;;13.77;;
17753;SDS011;8999;48.994;9.150;2022-12-05T08:57:48;24.53;;;13.33;;
17753;SDS011;8999;48.994;9.150;2022-12-05T09:00:19;23.00;;;13.57;;
17753;SDS011;8999;48.994;9.150;2022-12-05T09:02:51;20.50;;;12.93;;
17753;SDS011;8999;48.994;9.150;2022-12-05T09:05:23;22.07;;;13.90;;
17753;SDS011;8999;48.994;9.150;2022-12-05T09:07:54;21.80;;;11.67;;
17753;SDS011;8999;48.994;9.150;2022-12-05T09:10:27;25.10;;;12.93;;
17753;SDS011;8999;48.994;9.150;2022-12-05T09:12:59;20.87;;;12.07;;
17753;SDS011;8999;48.994;9.150;2022-12-05T09:15:31;23.93;;;13.30;;
17753;SDS011;8999;48.994;9.150;2022-12-05T09:18:02;21.90;;;12.63;;
17753;SDS011;8999;48.994;9.150;2022-12-05T09:20:34;23.80;;;13.13;;
17753;SDS011;8999;48.994;9.150;2022-12-05T09:23:09;25.73;;;12.03;;
17753;SDS011;8999;48.994;9.150;2022-12-05T09:25:42;24.97;;;12.70;;
17753;SDS011;8999;48.994;9.150;2022-12-05T09:28:13;25.47;;;14.47;;
17753;SDS011;8999;48.994;9.150;2022-12-05T09:30:53;24.33;;;13.47;;
17753;SDS011;8999;48.994;9.150;2022-12-05T09:33:26;24.43;;;13.30;;
17753;SDS011;8999;48.994;9.150;2022-12-05T09:35:57;25.53;;;13.87;;
17753;SDS011;8999;48.994;9.150;2022-12-05T09:38:29;27.53;;;14.33;;
17753;SDS011;8999;48.994;9.150;2022-12-05T09:41:04;25.07;;;14.53;;
17753;SDS011;8999;48.994;9.150;2022-12-05T09:43:41;27.85;;;14.95;;
17753;SDS011;8999;48.994;9.150;2022-12-05T09:46:18;26.70;;;15.70;;
17753;SDS011;8999;48.994;9.150;2022-12-05T09:48:56;27.80;;;16.23;;
17753;SDS011;8999;48.994;9.150;2022-12-05T09:51:29;25.93;;;14.73;;
17753;SDS011;8999;48.994;9.150;2022-12-05T09:54:01;23.23;;;14.00;;
17753;SDS011;8999;48.994;9.150;2022-12-05T09:56:34;21.50;;;13.17;;
17753;SDS011;8999;48.994;9.150;2022-12-05T09:59:08;24.37;;;14.50;;
17753;SDS011;8999;48.994;9.150;2022-12-05T10:01:45;23.27;;;13.50;;
17753;SDS011;8999;48.994;9.150;2022-12-05T10:04:27;20.87;;;12.50;;
17753;SDS011;8999;48.994;9.150;2022-12-05T10:07:10;20.47;;;12.13;;
17753;SDS011;8999;48.994;9.150;2022-12-05T10:12:50;19.33;;;11.90;;
17753;SDS011;8999;48.994;9.150;2022-12-05T10:15:30;21.93;;;12.60;;
17753;SDS011;8999;48.994;9.150;2022-12-05T10:18:04;24.53;;;12.93;;
17753;SDS011;8999;48.994;9.150;2022-12-05T10:20:42;22.97;;;12.40;;
17753;SDS011;8999;48.994;9.150;2022-12-05T10:23:19;22.80;;;13.80;;
17753;SDS011;8999;48.994;9.150;2022-12-05T10:25:54;21.07;;;12.27;;
17753;SDS011;8999;48.994;9.150;2022-12-05T10:28:30;20.70;;;11.93;;
17753;SDS011;8999;48.994;9.150;2022-12-05T10:31:05;23.55;;;13.43;;
17753;SDS011;8999;48.994;9.150;2022-12-05T10:33:39;22.38;;;12.40;;
17753;SDS011;8999;48.994;9.150;2022-12-05T10:36:15;20.20;;;12.48;;
17753;SDS011;8999;48.994;9.150;2022-12-05T10:38:47;20.83;;;12.32;;
17753;SDS011;8999;48.994;9.150;2022-12-05T10:41:19;20.98;;;13.13;;
17753;SDS011;8999;48.994;9.150;2022-12-05T10:43:52;20.63;;;11.77;;
17753;SDS011;8999;48.994;9.150;2022-12-05T10:46:23;24.17;;;13.68;;
17753;SDS011;8999;48.994;9.150;2022-12-05T10:48:55;20.67;;;12.60;;
17753;SDS011;8999;48.994;9.150;2022-12-05T10:51:27;20.45;;;12.38;;
17753;SDS011;8999;48.994;9.150;2022-12-05T10:53:58;23.50;;;13.25;;
17753;SDS011;8999;48.994;9.150;2022-12-05T10:56:34;23.60;;;13.73;;
17753;SDS011;8999;48.994;9.150;2022-12-05T10:59:09;22.75;;;12.85;;
17753;SDS011;8999;48.994;9.150;2022-12-05T11:01:44;22.38;;;13.60;;
17753;SDS011;8999;48.994;9.150;2022-12-05T11:04:22;23.90;;;14.10;;
17753;SDS011;8999;48.994;9.150;2022-12-05T11:06:56;24.27;;;13.43;;
17753;SDS011;8999;48.994;9.150;2022-12-05T11:09:30;22.02;;;13.90;;
17753;SDS011;8999;48.994;9.150;2022-12-05T11:14:57;23.63;;;13.43;;
17753;SDS011;8999;48.994;9.150;2022-12-05T11:17:32;27.95;;;13.18;;
17753;SDS011;8999;48.994;9.150;2022-12-05T11:23:21;20.80;;;12.45;;
17753;SDS011;8999;48.994;9.150;2022-12-05T11:25:55;23.08;;;13.65;;
17753;SDS011;8999;48.994;9.150;2022-12-05T11:28:31;23.33;;;13.35;;
17753;SDS011;8999;48.994;9.150;2022-12-05T11:31:08;20.23;;;12.77;;
17753;SDS011;8999;48.994;9.150;2022-12-05T11:33:58;25.52;;;13.90;;
17753;SDS011;8999;48.994;9.150;2022-12-05T11:36:35;24.15;;;13.85;;
17753;SDS011;8999;48.994;9.150;2022-12-05T11:39:09;21.35;;;13.05;;
17753;SDS011;8999;48.994;9.150;2022-12-05T11:41:45;20.00;;;12.73;;
17753;SDS011;8999;48.994;9.150;2022-12-05T11:44:34;22.42;;;12.63;;
17753;SDS011;8999;48.994;9.150;2022-12-05T11:47:29;25.20;;;13.65;;
17753;SDS011;8999;48.994;9.150;2022-12-05T11:50:12;20.80;;;12.73;;
17753;SDS011;8999;48.994;9.150;2022-12-05T11:52:51;23.00;;;12.85;;
17753;SDS011;8999;48.994;9.150;2022-12-05T11:55:28;22.48;;;12.65;;
17753;SDS011;8999;48.994;9.150;2022-12-05T11:58:11;25.30;;;12.73;;
17753;SDS011;8999;48.994;9.150;2022-12-05T12:00:55;24.65;;;12.90;;
17753;SDS011;8999;48.994;9.150;2022-12-05T12:03:40;21.67;;;13.32;;
17753;SDS011;8999;48.994;9.150;2022-12-05T12:06:30;26.90;;;14.85;;
17753;SDS011;8999;48.994;9.150;2022-12-05T12:09:11;24.30;;;12.63;;
17753;SDS011;8999;48.994;9.150;2022-12-05T12:11:57;24.13;;;13.82;;
17753;SDS011;8999;48.994;9.150;2022-12-05T12:14:36;23.77;;;13.15;;
17753;SDS011;8999;48.994;9.150;2022-12-05T12:17:14;25.48;;;12.85;;
17753;SDS011;8999;48.994;9.150;2022-12-05T12:19:55;20.42;;;12.38;;
17753;SDS011;8999;48.994;9.150;2022-12-05T12:22:37;20.27;;;12.73;;
17753;SDS011;8999;48.994;9.150;2022-12-05T12:25:19;19.52;;;11.85;;
17753;SDS011;8999;48.994;9.150;2022-12-05T12:27:58;19.00;;;11.85;;
17753;SDS011;8999;48.994;9.150;2022-12-05T12:30:39;20.00;;;13.10;;
17753;SDS011;8999;48.994;9.150;2022-12-05T12:33:24;19.27;;;12.05;;
17753;SDS011;8999;48.994;9.150;2022-12-05T12:36:03;17.13;;;11.70;;
17753;SDS011;8999;48.994;9.150;2022-12-05T12:38:45;20.83;;;12.85;;
17753;SDS011;8999;48.994;9.150;2022-12-05T12:41:28;19.95;;;11.18;;
17753;SDS011;8999;48.994;9.150;2022-12-05T12:44:15;15.70;;;10.70;;
17753;SDS011;8999;48.994;9.150;2022-12-05T12:46:54;17.88;;;11.10;;
17753;SDS011;8999;48.994;9.150;2022-12-05T12:49:37;16.98;;;10.88;;
17753;SDS011;8999;48.994;9.150;2022-12-05T12:52:17;16.27;;;10.50;;
17753;SDS011;8999;48.994;9.150;2022-12-05T12:54:53;17.20;;;11.18;;
17753;SDS011;8999;48.994;9.150;2022-12-05T12:57:43;23.50;;;15.18;;
17753;SDS011;8999;48.994;9.150;2022-12-05T13:00:26;18.65;;;12.80;;
17753;SDS011;8999;48.994;9.150;2022-12-05T13:03:02;20.85;;;13.25;;
17753;SDS011;8999;48.994;9.150;2022-12-05T13:05:38;25.38;;;14.85;;
17753;SDS011;8999;48.994;9.150;2022-12-05T13:08:15;15.90;;;10.40;;
17753;SDS011;8999;48.994;9.150;2022-12-05T13:10:52;15.52;;;9.95;;
17753;SDS011;8999;48.994;9.150;2022-12-05T13:13:24;16.27;;;10.23;;
17753;SDS011;8999;48.994;9.150;2022-12-05T13:15:59;16.33;;;10.32;;
17753;SDS011;8999;48.994;9.150;2022-12-05T13:18:32;14.70;;;10.15;;
17753;SDS011;8999;48.994;9.150;2022-12-05T13:21:05;14.80;;;9.55;;
17753;SDS011;8999;48.994;9.150;2022-12-05T13:23:42;13.02;;;8.95;;
17753;SDS011;8999;48.994;9.150;2022-12-05T13:26:17;13.63;;;9.50;;
17753;SDS011;8999;48.994;9.150;2022-12-05T13:28:49;12.98;;;9.48;;
17753;SDS011;8999;48.994;9.150;2022-12-05T13:31:33;12.40;;;8.77;;
17753;SDS011;8999;48.994;9.150;2022-12-05T13:34:28;15.05;;;10.40;;
17753;SDS011;8999;48.994;9.150;2022-12-05T13:37:18;20.60;;;14.02;;
17753;SDS011;8999;48.994;9.150;2022-12-05T13:40:19;13.68;;;9.45;;
17753;SDS011;8999;48.994;9.150;2022-12-05T13:43:11;12.23;;;8.65;;
17753;SDS011;8999;48.994;9.150;2022-12-05T13:45:52;14.25;;;10.15;;
17753;SDS011;8999;48.994;9.150;2022-12-05T13:48:29;18.30;;;10.73;;
17753;SDS011;8999;48.994;9.150;2022-12-05T13:51:04;19.42;;;12.63;;
17753;SDS011;8999;48.994;9.150;2022-12-05T13:53:38;18.38;;;11.63;;
17753;SDS011;8999;48.994;9.150;2022-12-05T13:56:24;15.52;;;10.48;;
17753;SDS011;8999;48.994;9.150;2022-12-05T13:58:57;16.77;;;10.85;;
17753;SDS011;8999;48.994;9.150;2022-12-05T14:04:23;15.93;;;10.55;;
17753;SDS011;8999;48.994;9.150;2022-12-05T14:07:13;18.25;;;11.02;;
17753;SDS011;8999;48.994;9.150;2022-12-05T14:10:11;20.17;;;12.50;;
17753;SDS011;8999;48.994;9.150;2022-12-05T14:12:48;19.38;;;11.90;;
17753;SDS011;8999;48.994;9.150;2022-12-05T14:15:25;17.88;;;11.32;;
17753;SDS011;8999;48.994;9.150;2022-12-05T14:17:59;18.35;;;12.00;;
17753;SDS011;8999;48.994;9.150;2022-12-05T14:23:43;20.20;;;12.88;;
17753;SDS011;8999;48.994;9.150;2022-12-05T14:26:27;18.67;;;12.02;;
17753;SDS011;8999;48.994;9.150;2022-12-05T14:29:16;16.35;;;11.32;;
17753;SDS011;8999;48.994;9.150;2022-12-05T14:32:00;15.32;;;10.25;;
17753;SDS011;8999;48.994;9.150;2022-12-05T14:34:36;15.55;;;10.40;;
17753;SDS011;8999;48.994;9.150;2022-12-05T14:37:19;17.08;;;11.10;;
17753;SDS011;8999;48.994;9.150;2022-12-05T14:39:56;16.20;;;10.90;;
17753;SDS011;8999;48.994;9.150;2022-12-05T14:42:32;22.67;;;12.95;;
17753;SDS011;8999;48.994;9.150;2022-12-05T14:48:03;18.35;;;11.52;;
17753;SDS011;8999;48.994;9.150;2022-12-05T14:50:40;19.02;;;11.85;;
17753;SDS011;8999;48.994;9.150;2022-12-05T14:53:28;17.98;;;12.02;;
17753;SDS011;8999;48.994;9.150;2022-12-05T14:56:08;24.27;;;17.45;;
17753;SDS011;8999;48.994;9.150;2022-12-05T14:58:44;19.42;;;13.60;;
17753;SDS011;8999;48.994;9.150;2022-12-05T15:01:21;16.40;;;11.27;;
17753;SDS011;8999;48.994;9.150;2022-12-05T15:04:04;16.40;;;10.45;;
17753;SDS011;8999;48.994;9.150;2022-12-05T15:06:41;16.42;;;11.80;;
17753;SDS011;8999;48.994;9.150;2022-12-05T15:09:28;18.30;;;12.15;;
17753;SDS011;8999;48.994;9.150;2022-12-05T15:12:03;16.88;;;11.13;;
17753;SDS011;8999;48.994;9.150;2022-12-05T15:14:38;17.05;;;11.27;;
17753;SDS011;8999;48.994;9.150;2022-12-05T15:17:16;17.63;;;11.70;;
17753;SDS011;8999;48.994;9.150;2022-12-05T15:19:54;16.10;;;10.40;;
17753;SDS011;8999;48.994;9.150;2022-12-05T15:22:28;17.08;;;11.32;;
17753;SDS011;8999;48.994;9.150;2022-12-05T15:25:13;19.67;;;11.32;;
17753;SDS011;8999;48.994;9.150;2022-12-05T15:27:50;20.08;;;11.93;;
17753;SDS011;8999;48.994;9.150;2022-12-05T15:30:23;19.50;;;12.93;;
17753;SDS011;8999;48.994;9.150;2022-12-05T15:32:56;20.92;;;12.80;;
17753;SDS011;8999;48.994;9.150;2022-12-05T15:35:30;19.25;;;12.82;;
17753;SDS011;8999;48.994;9.150;2022-12-05T15:38:04;21.48;;;13.40;;
17753;SDS011;8999;48.994;9.150;2022-12-05T15:40:43;19.13;;;13.05;;
17753;SDS011;8999;48.994;9.150;2022-12-05T15:43:25;19.08;;;12.52;;
17753;SDS011;8999;48.994;9.150;2022-12-05T15:46:08;21.40;;;12.82;;